Bomnak, Russia
Current Conditions -  °F | °C
As of 12:00 AM on Thursday 27 Nov 2014 (Local Time) from UHBB Reporting Station
Clear Clear  
Wind Chill: 12°   Ceiling: Unl
Heat Index: 25°   Visibility: 6mi
Dew Point: 12°   Wind: 16mph
Humidity: 59%   Direction: 260°W
Pressure: 29.62"   Gusts: NA
Location:  54.71°N, 128.86°E
Report Text: UHBB 261500Z 26007MPS CAVOK M04/M11 Q1003 NOSIG RMK QFE735/098036410250
Loading
Personal Weather Stations






























Interactive Weather Map New forecast layout! Learn more

10-Day Weather Forecast

Advertisements
Track Severe Weather on mobile